5A6

Winona-Montgomery County Airport

Winona, Mississippi, USA
METAR K5A6 161955Z AUTO 33010KT 7SM RA SCT027 SCT043 SCT060 30/25 A2997 RMK AO2 LTG DSNT ALQS T03030245
Observed Flight Rules
Jul-16 @ 19:55 UTC (21 minutes ago) Visual Flight Rules
Wind Visibility Clouds Conditions
330° at 10 knots 7 miles
  • Scattered at 2,700' AGL
  • Scattered at 4,300' AGL
  • Scattered at 6,000' AGL
  • Rain
Temperatures Readings
Current 30°C / 86°F
Dewpoint 25°C / 77°F
Humidity 75%
Altimeter 29.97" Hg
Pressure 1015 hPa
Elevation 111
METAR K5A6 161955Z AUTO 33010KT 7SM RA SCT027 SCT043 SCT060 30/25 A2997 RMK AO2 LTG DSNT ALQS T03030245
Observed Flight Rules
Jul-16 @ 19:55 UTC
(21 minutes ago)
VFR
Wind Visibility
330° at 10 knots 7 miles
Clouds
  • Scattered at 2,700' AGL
  • Scattered at 4,300' AGL
  • Scattered at 6,000' AGL
Conditions
  • Rain
Temperature Dewpoint
30°C / 86°F 25°C / 77°F
Humidity Altimeter Pressure
75% 29.97" Hg 1015 hPa